sensor_id;sensor_type;location;lat;lon;timestamp;pressure;altitude;pressure_sealevel;temperature;humidity
13836;BME280;6988;52.614;13.500;2022-10-23T00:01:52;54344.13;;;-143.77;88.26
13836;BME280;6988;52.614;13.500;2022-10-23T00:06:45;54319.50;;;-143.77;88.42
13836;BME280;6988;52.614;13.500;2022-10-23T00:11:38;54331.81;;;-143.77;88.57
13836;BME280;6988;52.614;13.500;2022-10-23T00:16:31;54340.03;;;-143.77;88.35
13836;BME280;6988;52.614;13.500;2022-10-23T00:21:25;54352.34;;;-143.77;88.55
13836;BME280;6988;52.614;13.500;2022-10-23T00:26:17;54329.75;;;-143.77;88.76
13836;BME280;6988;52.614;13.500;2022-10-23T00:31:10;54387.22;;;-143.77;88.66
13836;BME280;6988;52.614;13.500;2022-10-23T00:36:06;54385.16;;;-143.77;89.18
13836;BME280;6988;52.614;13.500;2022-10-23T00:41:01;54366.69;;;-143.77;89.10
13836;BME280;6988;52.614;13.500;2022-10-23T00:45:53;54368.75;;;-143.77;89.46
13836;BME280;6988;52.614;13.500;2022-10-23T00:50:47;54415.94;;;-143.77;89.93
13836;BME280;6988;52.614;13.500;2022-10-23T00:55:42;54366.69;;;-143.77;90.07
13836;BME280;6988;52.614;13.500;2022-10-23T01:00:48;54389.28;;;-143.77;90.67
13836;BME280;6988;52.614;13.500;2022-10-23T01:05:48;54352.34;;;-143.77;90.83
13836;BME280;6988;52.614;13.500;2022-10-23T01:10:46;54379.00;;;-143.77;90.84
13836;BME280;6988;52.614;13.500;2022-10-23T01:15:46;54340.03;;;-143.77;90.78
13836;BME280;6988;52.614;13.500;2022-10-23T01:20:45;54331.81;;;-143.77;90.93
13836;BME280;6988;52.614;13.500;2022-10-23T01:26:00;54356.44;;;-143.77;91.02
13836;BME280;6988;52.614;13.500;2022-10-23T01:30:58;54323.59;;;-143.77;90.93
13836;BME280;6988;52.614;13.500;2022-10-23T01:36:02;54383.13;;;-143.77;90.76
13836;BME280;6988;52.614;13.500;2022-10-23T01:40:59;54383.13;;;-143.77;90.69
13836;BME280;6988;52.614;13.500;2022-10-23T01:45:59;54374.91;;;-143.77;90.56
13836;BME280;6988;52.614;13.500;2022-10-23T01:50:57;54352.34;;;-143.77;90.34
13836;BME280;6988;52.614;13.500;2022-10-23T01:55:52;54372.84;;;-143.77;90.55
13836;BME280;6988;52.614;13.500;2022-10-23T02:00:49;54376.97;;;-143.77;90.44
13836;BME280;6988;52.614;13.500;2022-10-23T02:05:44;54381.06;;;-143.77;90.49
13836;BME280;6988;52.614;13.500;2022-10-23T02:10:48;54401.56;;;-143.77;90.13
13836;BME280;6988;52.614;13.500;2022-10-23T02:15:47;54360.53;;;-143.77;89.84
13836;BME280;6988;52.614;13.500;2022-10-23T02:20:47;54352.34;;;-143.77;89.64
13836;BME280;6988;52.614;13.500;2022-10-23T02:25:52;54405.69;;;-143.77;89.46
13836;BME280;6988;52.614;13.500;2022-10-23T02:30:48;54387.22;;;-143.77;89.63
13836;BME280;6988;52.614;13.500;2022-10-23T02:35:40;54364.66;;;-143.77;89.69
13836;BME280;6988;52.614;13.500;2022-10-23T02:40:55;54391.31;;;-143.77;89.78
13836;BME280;6988;52.614;13.500;2022-10-23T02:45:57;54356.44;;;-143.77;89.82
13836;BME280;6988;52.614;13.500;2022-10-23T02:50:58;54383.13;;;-143.77;90.15
13836;BME280;6988;52.614;13.500;2022-10-23T02:56:02;54366.69;;;-143.77;89.94
13836;BME280;6988;52.614;13.500;2022-10-23T03:01:05;54356.44;;;-143.77;90.00
13836;BME280;6988;52.614;13.500;2022-10-23T03:05:58;54354.38;;;-143.77;89.74
13836;BME280;6988;52.614;13.500;2022-10-23T03:10:50;54405.69;;;-143.77;89.76
13836;BME280;6988;52.614;13.500;2022-10-23T03:15:46;54368.75;;;-143.77;89.59
13836;BME280;6988;52.614;13.500;2022-10-23T03:20:39;54374.91;;;-143.77;89.39
13836;BME280;6988;52.614;13.500;2022-10-23T03:25:30;54370.81;;;-143.77;89.24
13836;BME280;6988;52.614;13.500;2022-10-23T03:30:23;54364.66;;;-143.77;89.06
13836;BME280;6988;52.614;13.500;2022-10-23T03:35:19;54405.69;;;-143.77;89.10
13836;BME280;6988;52.614;13.500;2022-10-23T03:40:11;54397.47;;;-143.77;88.40
13836;BME280;6988;52.614;13.500;2022-10-23T03:45:04;54385.16;;;-143.77;88.09
13836;BME280;6988;52.614;13.500;2022-10-23T03:49:56;54366.69;;;-143.77;87.82
13836;BME280;6988;52.614;13.500;2022-10-23T03:54:49;54401.56;;;-143.77;87.58
13836;BME280;6988;52.614;13.500;2022-10-23T03:59:41;54393.38;;;-143.77;87.30
13836;BME280;6988;52.614;13.500;2022-10-23T04:04:33;54418.00;;;-143.77;86.79
13836;BME280;6988;52.614;13.500;2022-10-23T04:09:25;54405.69;;;-143.77;86.19
13836;BME280;6988;52.614;13.500;2022-10-23T04:14:18;54397.47;;;-143.77;86.28
13836;BME280;6988;52.614;13.500;2022-10-23T04:19:11;54393.38;;;-143.77;85.58
13836;BME280;6988;52.614;13.500;2022-10-23T04:24:03;54413.88;;;-143.77;85.31
13836;BME280;6988;52.614;13.500;2022-10-23T04:28:56;54418.00;;;-143.77;84.82
13836;BME280;6988;52.614;13.500;2022-10-23T04:33:49;54434.41;;;-143.77;84.90
13836;BME280;6988;52.614;13.500;2022-10-23T04:38:55;54426.19;;;-143.77;84.72
13836;BME280;6988;52.614;13.500;2022-10-23T04:43:46;54422.09;;;-143.77;84.77
13836;BME280;6988;52.614;13.500;2022-10-23T04:48:39;54418.00;;;-143.77;85.20
13836;BME280;6988;52.614;13.500;2022-10-23T04:53:51;54430.31;;;-143.77;85.12
13836;BME280;6988;52.614;13.500;2022-10-23T04:59:05;54434.41;;;-143.77;84.62
13836;BME280;6988;52.614;13.500;2022-10-23T05:03:58;54456.97;;;-143.77;84.63
13836;BME280;6988;52.614;13.500;2022-10-23T05:08:51;54475.44;;;-143.77;84.67
13836;BME280;6988;52.614;13.500;2022-10-23T05:14:02;54471.34;;;-143.77;84.48
13836;BME280;6988;52.614;13.500;2022-10-23T05:18:54;54459.03;;;-143.77;85.00
13836;BME280;6988;52.614;13.500;2022-10-23T05:23:46;54454.94;;;-143.77;84.91
13836;BME280;6988;52.614;13.500;2022-10-23T05:28:40;54454.94;;;-143.77;85.36
13836;BME280;6988;52.614;13.500;2022-10-23T05:33:36;54469.28;;;-143.77;85.32
13836;BME280;6988;52.614;13.500;2022-10-23T05:38:32;54479.56;;;-143.77;85.58
13836;BME280;6988;52.614;13.500;2022-10-23T05:43:32;54481.59;;;-143.77;85.19
13836;BME280;6988;52.614;13.500;2022-10-23T05:48:35;54489.81;;;-143.77;85.20
13836;BME280;6988;52.614;13.500;2022-10-23T05:53:56;54463.13;;;-143.77;85.40
13836;BME280;6988;52.614;13.500;2022-10-23T05:58:56;54495.97;;;-143.77;85.61
13836;BME280;6988;52.614;13.500;2022-10-23T06:03:57;54502.13;;;-143.77;85.92
13836;BME280;6988;52.614;13.500;2022-10-23T06:09:03;54483.66;;;-143.77;86.03
13836;BME280;6988;52.614;13.500;2022-10-23T06:14:00;54485.72;;;-143.77;86.45
13836;BME280;6988;52.614;13.500;2022-10-23T06:18:52;54500.06;;;-143.77;86.71
13836;BME280;6988;52.614;13.500;2022-10-23T06:23:46;54491.88;;;-143.77;85.79
13836;BME280;6988;52.614;13.500;2022-10-23T06:28:50;54491.88;;;-143.77;86.30
13836;BME280;6988;52.614;13.500;2022-10-23T06:33:42;54498.03;;;-143.77;87.17
13836;BME280;6988;52.614;13.500;2022-10-23T06:38:35;54487.75;;;-143.77;87.64
13836;BME280;6988;52.614;13.500;2022-10-23T06:43:30;54475.44;;;-143.77;87.97
13836;BME280;6988;52.614;13.500;2022-10-23T06:48:40;54454.94;;;-143.77;87.98
13836;BME280;6988;52.614;13.500;2022-10-23T06:53:39;54446.72;;;-143.77;88.37
13836;BME280;6988;52.614;13.500;2022-10-23T06:58:45;54444.66;;;-143.77;89.43
13836;BME280;6988;52.614;13.500;2022-10-23T07:03:39;54413.88;;;-143.77;90.30
13836;BME280;6988;52.614;13.500;2022-10-23T07:08:33;54450.81;;;-143.77;90.66
13836;BME280;6988;52.614;13.500;2022-10-23T07:13:27;54436.47;;;-143.77;90.13
13836;BME280;6988;52.614;13.500;2022-10-23T07:18:27;54381.06;;;-143.77;89.60
13836;BME280;6988;52.614;13.500;2022-10-23T07:23:39;54401.56;;;-143.77;89.50
13836;BME280;6988;52.614;13.500;2022-10-23T07:28:31;54356.44;;;-143.77;89.20
13836;BME280;6988;52.614;13.500;2022-10-23T07:33:24;54358.50;;;-143.77;87.39
13836;BME280;6988;52.614;13.500;2022-10-23T07:38:24;54385.16;;;-143.77;87.17
13836;BME280;6988;52.614;13.500;2022-10-23T07:43:18;54335.91;;;-143.77;87.03
13836;BME280;6988;52.614;13.500;2022-10-23T07:48:11;54335.91;;;-143.77;86.93
13836;BME280;6988;52.614;13.500;2022-10-23T07:53:24;54354.38;;;-143.77;87.09
13836;BME280;6988;52.614;13.500;2022-10-23T07:58:18;54323.59;;;-143.77;88.02
13836;BME280;6988;52.614;13.500;2022-10-23T08:03:17;54270.25;;;-143.77;88.65
13836;BME280;6988;52.614;13.500;2022-10-23T08:08:11;54286.69;;;-143.77;89.21
13836;BME280;6988;52.614;13.500;2022-10-23T08:13:10;54262.06;;;-143.77;88.04
13836;BME280;6988;52.614;13.500;2022-10-23T08:18:23;54171.78;;;-143.77;87.76
13836;BME280;6988;52.614;13.500;2022-10-23T08:23:17;54177.94;;;-143.77;83.77
13836;BME280;6988;52.614;13.500;2022-10-23T08:28:11;54175.88;;;-143.77;81.44
13836;BME280;6988;52.614;13.500;2022-10-23T08:33:14;54151.25;;;-143.77;77.59
13836;BME280;6988;52.614;13.500;2022-10-23T08:43:18;54157.41;;;-143.77;76.06
13836;BME280;6988;52.614;13.500;2022-10-23T08:48:30;54138.94;;;-143.77;73.90
13836;BME280;6988;52.614;13.500;2022-10-23T08:53:51;54124.59;;;-143.77;73.42
13836;BME280;6988;52.614;13.500;2022-10-23T08:58:53;54104.06;;;-143.77;72.63
13836;BME280;6988;52.614;13.500;2022-10-23T09:03:47;54083.56;;;-143.77;75.10
13836;BME280;6988;52.614;13.500;2022-10-23T09:08:46;54102.00;;;-143.77;69.21
13836;BME280;6988;52.614;13.500;2022-10-23T09:14:18;54077.41;;;-143.77;68.83
13836;BME280;6988;52.614;13.500;2022-10-23T09:19:19;54056.88;;;-143.77;69.88
13836;BME280;6988;52.614;13.500;2022-10-23T09:24:16;54071.25;;;-143.77;68.58
13836;BME280;6988;52.614;13.500;2022-10-23T09:29:21;54102.00;;;-143.77;69.31
13836;BME280;6988;52.614;13.500;2022-10-23T09:34:19;54093.81;;;-143.77;69.51
13836;BME280;6988;52.614;13.500;2022-10-23T09:39:22;54138.94;;;-143.77;70.18
13836;BME280;6988;52.614;13.500;2022-10-23T09:44:19;54159.47;;;-143.77;70.43
13836;BME280;6988;52.614;13.500;2022-10-23T09:49:22;54138.94;;;-143.77;71.64
13836;BME280;6988;52.614;13.500;2022-10-23T09:54:15;54112.28;;;-143.77;70.88
13836;BME280;6988;52.614;13.500;2022-10-23T09:59:22;54157.41;;;-143.77;71.11
13836;BME280;6988;52.614;13.500;2022-10-23T10:04:15;54159.47;;;-143.77;72.13
13836;BME280;6988;52.614;13.500;2022-10-23T10:09:11;54161.50;;;-143.77;71.79
13836;BME280;6988;52.614;13.500;2022-10-23T10:14:30;54118.44;;;-143.77;70.75
13836;BME280;6988;52.614;13.500;2022-10-23T10:19:50;54136.91;;;-143.77;69.90
13836;BME280;6988;52.614;13.500;2022-10-23T10:24:56;54126.63;;;-143.77;69.54
13836;BME280;6988;52.614;13.500;2022-10-23T10:30:04;54126.63;;;-143.77;69.67
13836;BME280;6988;52.614;13.500;2022-10-23T10:35:16;54157.41;;;-143.77;69.92
13836;BME280;6988;52.614;13.500;2022-10-23T10:40:21;54126.63;;;-143.77;69.83
13836;BME280;6988;52.614;13.500;2022-10-23T10:45:29;54089.72;;;-143.77;69.76
13836;BME280;6988;52.614;13.500;2022-10-23T10:50:30;54093.81;;;-143.77;68.67
13836;BME280;6988;52.614;13.500;2022-10-23T10:55:38;54095.88;;;-143.77;68.45
13836;BME280;6988;52.614;13.500;2022-10-23T11:00:33;54063.03;;;-143.77;69.12
13836;BME280;6988;52.614;13.500;2022-10-23T11:05:30;54032.25;;;-143.77;68.66
13836;BME280;6988;52.614;13.500;2022-10-23T11:10:23;54034.31;;;-143.77;67.62
13836;BME280;6988;52.614;13.500;2022-10-23T11:15:20;54011.75;;;-143.77;66.57
13836;BME280;6988;52.614;13.500;2022-10-23T11:20:30;54007.63;;;-143.77;64.19
13836;BME280;6988;52.614;13.500;2022-10-23T11:25:50;54005.59;;;-143.77;62.77
13836;BME280;6988;52.614;13.500;2022-10-23T11:31:07;53950.19;;;-143.77;63.22
13836;BME280;6988;52.614;13.500;2022-10-23T11:36:15;53962.50;;;-143.77;63.42
13836;BME280;6988;52.614;13.500;2022-10-23T11:41:19;53966.59;;;-143.77;63.11
13836;BME280;6988;52.614;13.500;2022-10-23T11:46:14;53950.19;;;-143.77;62.45
13836;BME280;6988;52.614;13.500;2022-10-23T11:51:28;53933.78;;;-143.77;62.25
13836;BME280;6988;52.614;13.500;2022-10-23T11:56:26;53890.69;;;-143.77;62.47
13836;BME280;6988;52.614;13.500;2022-10-23T12:01:36;53905.06;;;-143.77;61.38
13836;BME280;6988;52.614;13.500;2022-10-23T12:06:39;53944.03;;;-143.77;61.66
13836;BME280;6988;52.614;13.500;2022-10-23T12:11:43;53927.63;;;-143.77;62.15
13836;BME280;6988;52.614;13.500;2022-10-23T12:16:35;53884.53;;;-143.77;61.40
13836;BME280;6988;52.614;13.500;2022-10-23T12:21:27;53896.84;;;-143.77;61.13
13836;BME280;6988;52.614;13.500;2022-10-23T12:26:36;53905.06;;;-143.77;61.55
13836;BME280;6988;52.614;13.500;2022-10-23T12:31:44;53925.56;;;-143.77;61.54
13836;BME280;6988;52.614;13.500;2022-10-23T12:37:00;53917.38;;;-143.77;61.75
13836;BME280;6988;52.614;13.500;2022-10-23T12:41:59;53929.69;;;-143.77;61.54
13836;BME280;6988;52.614;13.500;2022-10-23T12:46:55;53913.25;;;-143.77;60.46
13836;BME280;6988;52.614;13.500;2022-10-23T12:51:55;53931.72;;;-143.77;60.81
13836;BME280;6988;52.614;13.500;2022-10-23T12:56:48;53927.63;;;-143.77;61.51
13836;BME280;6988;52.614;13.500;2022-10-23T13:01:41;53917.38;;;-143.77;61.71
13836;BME280;6988;52.614;13.500;2022-10-23T13:06:34;53972.75;;;-143.77;62.53
13836;BME280;6988;52.614;13.500;2022-10-23T13:11:27;53950.19;;;-143.77;63.20
13836;BME280;6988;52.614;13.500;2022-10-23T13:16:25;53946.09;;;-143.77;62.98
13836;BME280;6988;52.614;13.500;2022-10-23T13:21:21;53944.03;;;-143.77;63.47
13836;BME280;6988;52.614;13.500;2022-10-23T13:26:30;53970.72;;;-143.77;63.88
13836;BME280;6988;52.614;13.500;2022-10-23T13:31:28;53995.31;;;-143.77;64.58
13836;BME280;6988;52.614;13.500;2022-10-23T13:36:23;53976.88;;;-143.77;65.71
13836;BME280;6988;52.614;13.500;2022-10-23T13:41:18;54060.97;;;-143.77;65.00
13836;BME280;6988;52.614;13.500;2022-10-23T13:46:13;53993.28;;;-143.77;66.23
13836;BME280;6988;52.614;13.500;2022-10-23T13:51:12;53999.44;;;-143.77;66.16
13836;BME280;6988;52.614;13.500;2022-10-23T13:56:08;54044.56;;;-143.77;66.71
13836;BME280;6988;52.614;13.500;2022-10-23T14:01:01;54040.47;;;-143.77;66.70
13836;BME280;6988;52.614;13.500;2022-10-23T14:05:53;54019.94;;;-143.77;66.76
13836;BME280;6988;52.614;13.500;2022-10-23T14:10:45;54007.63;;;-143.77;66.71
13836;BME280;6988;52.614;13.500;2022-10-23T14:15:38;54054.81;;;-143.77;67.03
13836;BME280;6988;52.614;13.500;2022-10-23T14:20:30;54102.00;;;-143.77;67.26
13836;BME280;6988;52.614;13.500;2022-10-23T14:25:22;54052.78;;;-143.77;67.81
13836;BME280;6988;52.614;13.500;2022-10-23T14:30:14;54060.97;;;-143.77;68.78
13836;BME280;6988;52.614;13.500;2022-10-23T14:35:08;54052.78;;;-143.77;69.31
13836;BME280;6988;52.614;13.500;2022-10-23T14:40:00;54089.72;;;-143.77;69.82
13836;BME280;6988;52.614;13.500;2022-10-23T14:44:51;54099.97;;;-143.77;69.93
13836;BME280;6988;52.614;13.500;2022-10-23T14:49:48;54081.50;;;-143.77;70.22
13836;BME280;6988;52.614;13.500;2022-10-23T14:54:43;54089.72;;;-143.77;71.21
13836;BME280;6988;52.614;13.500;2022-10-23T14:59:35;54112.28;;;-143.77;71.53
13836;BME280;6988;52.614;13.500;2022-10-23T15:04:27;54108.16;;;-143.77;72.30
13836;BME280;6988;52.614;13.500;2022-10-23T15:09:18;54151.25;;;-143.77;72.32
13836;BME280;6988;52.614;13.500;2022-10-23T15:14:12;54108.16;;;-143.77;73.03
13836;BME280;6988;52.614;13.500;2022-10-23T15:19:03;54116.38;;;-143.77;73.52
13836;BME280;6988;52.614;13.500;2022-10-23T15:23:55;54087.66;;;-143.77;73.94
13836;BME280;6988;52.614;13.500;2022-10-23T15:28:51;54118.44;;;-143.77;74.33
13836;BME280;6988;52.614;13.500;2022-10-23T15:33:45;54143.06;;;-143.77;75.22
13836;BME280;6988;52.614;13.500;2022-10-23T15:38:37;54155.38;;;-143.77;75.74
13836;BME280;6988;52.614;13.500;2022-10-23T15:43:29;54169.72;;;-143.77;75.67
13836;BME280;6988;52.614;13.500;2022-10-23T15:48:20;54177.94;;;-143.77;75.84
13836;BME280;6988;52.614;13.500;2022-10-23T15:53:13;54184.09;;;-143.77;76.48
13836;BME280;6988;52.614;13.500;2022-10-23T15:58:05;54200.50;;;-143.77;76.79
13836;BME280;6988;52.614;13.500;2022-10-23T16:02:57;54188.19;;;-143.77;77.11
13836;BME280;6988;52.614;13.500;2022-10-23T16:07:49;54210.75;;;-143.77;77.59
13836;BME280;6988;52.614;13.500;2022-10-23T16:12:42;54204.59;;;-143.77;78.65
13836;BME280;6988;52.614;13.500;2022-10-23T16:17:33;54229.22;;;-143.77;79.37
13836;BME280;6988;52.614;13.500;2022-10-23T16:22:25;54192.28;;;-143.77;80.25
13836;BME280;6988;52.614;13.500;2022-10-23T16:27:17;54194.34;;;-143.77;80.08
13836;BME280;6988;52.614;13.500;2022-10-23T16:32:10;54194.34;;;-143.77;80.38
13836;BME280;6988;52.614;13.500;2022-10-23T16:37:02;54243.59;;;-143.77;80.56
13836;BME280;6988;52.614;13.500;2022-10-23T16:42:14;54229.22;;;-143.77;80.84
13836;BME280;6988;52.614;13.500;2022-10-23T16:47:18;54210.75;;;-143.77;81.15
13836;BME280;6988;52.614;13.500;2022-10-23T16:52:10;54235.38;;;-143.77;81.18
13836;BME280;6988;52.614;13.500;2022-10-23T16:57:02;54221.03;;;-143.77;81.19
13836;BME280;6988;52.614;13.500;2022-10-23T17:01:54;54225.13;;;-143.77;80.87
13836;BME280;6988;52.614;13.500;2022-10-23T17:06:47;54206.66;;;-143.77;81.18
13836;BME280;6988;52.614;13.500;2022-10-23T17:11:39;54216.91;;;-143.77;81.29
13836;BME280;6988;52.614;13.500;2022-10-23T17:16:34;54294.88;;;-143.77;81.43
13836;BME280;6988;52.614;13.500;2022-10-23T17:21:32;54266.16;;;-143.77;81.78
13836;BME280;6988;52.614;13.500;2022-10-23T17:26:25;54270.25;;;-143.77;81.99
13836;BME280;6988;52.614;13.500;2022-10-23T17:31:20;54210.75;;;-143.77;82.06
13836;BME280;6988;52.614;13.500;2022-10-23T17:36:15;54253.84;;;-143.77;82.23
13836;BME280;6988;52.614;13.500;2022-10-23T17:41:08;54247.69;;;-143.77;82.27
13836;BME280;6988;52.614;13.500;2022-10-23T17:46:03;54227.16;;;-143.77;82.38
13836;BME280;6988;52.614;13.500;2022-10-23T17:51:02;54257.94;;;-143.77;82.52
13836;BME280;6988;52.614;13.500;2022-10-23T17:55:55;54237.44;;;-143.77;82.29
13836;BME280;6988;52.614;13.500;2022-10-23T18:00:46;54251.78;;;-143.77;82.52
13836;BME280;6988;52.614;13.500;2022-10-23T18:05:39;54257.94;;;-143.77;82.61
13836;BME280;6988;52.614;13.500;2022-10-23T18:10:34;54260.00;;;-143.77;82.95
13836;BME280;6988;52.614;13.500;2022-10-23T18:15:26;54251.78;;;-143.77;82.76
13836;BME280;6988;52.614;13.500;2022-10-23T18:20:18;54266.16;;;-143.77;82.75
13836;BME280;6988;52.614;13.500;2022-10-23T18:25:11;54280.53;;;-143.77;82.93
13836;BME280;6988;52.614;13.500;2022-10-23T18:30:03;54249.75;;;-143.77;82.82
13836;BME280;6988;52.614;13.500;2022-10-23T18:34:55;54233.31;;;-143.77;82.92
13836;BME280;6988;52.614;13.500;2022-10-23T18:39:47;54292.84;;;-143.77;83.16
13836;BME280;6988;52.614;13.500;2022-10-23T18:44:40;54266.16;;;-143.77;82.95
13836;BME280;6988;52.614;13.500;2022-10-23T18:49:36;54286.69;;;-143.77;82.86
13836;BME280;6988;52.614;13.500;2022-10-23T18:54:28;54262.06;;;-143.77;83.34
13836;BME280;6988;52.614;13.500;2022-10-23T18:59:20;54233.31;;;-143.77;83.13
13836;BME280;6988;52.614;13.500;2022-10-23T19:04:14;54274.38;;;-143.77;82.55
13836;BME280;6988;52.614;13.500;2022-10-23T19:09:12;54268.22;;;-143.77;82.27
13836;BME280;6988;52.614;13.500;2022-10-23T19:14:05;54290.78;;;-143.77;81.90
13836;BME280;6988;52.614;13.500;2022-10-23T19:18:59;54272.31;;;-143.77;81.81
13836;BME280;6988;52.614;13.500;2022-10-23T19:23:54;54276.41;;;-143.77;82.62
13836;BME280;6988;52.614;13.500;2022-10-23T19:28:51;54298.97;;;-143.77;82.27
13836;BME280;6988;52.614;13.500;2022-10-23T19:33:43;54276.41;;;-143.77;81.55
13836;BME280;6988;52.614;13.500;2022-10-23T19:38:35;54303.09;;;-143.77;82.22
13836;BME280;6988;52.614;13.500;2022-10-23T19:43:31;54280.53;;;-143.77;82.18
13836;BME280;6988;52.614;13.500;2022-10-23T19:48:22;54294.88;;;-143.77;82.16
13836;BME280;6988;52.614;13.500;2022-10-23T19:53:14;54274.38;;;-143.77;82.36
13836;BME280;6988;52.614;13.500;2022-10-23T19:58:07;54323.59;;;-143.77;81.70
13836;BME280;6988;52.614;13.500;2022-10-23T20:03:00;54288.72;;;-143.77;81.77
13836;BME280;6988;52.614;13.500;2022-10-23T20:07:51;54288.72;;;-143.77;81.58
13836;BME280;6988;52.614;13.500;2022-10-23T20:12:43;54307.19;;;-143.77;81.73
13836;BME280;6988;52.614;13.500;2022-10-23T20:17:35;54323.59;;;-143.77;82.47
13836;BME280;6988;52.614;13.500;2022-10-23T20:22:28;54292.84;;;-143.77;82.04
13836;BME280;6988;52.614;13.500;2022-10-23T20:27:19;54319.50;;;-143.77;81.66
13836;BME280;6988;52.614;13.500;2022-10-23T20:32:12;54311.28;;;-143.77;82.06
13836;BME280;6988;52.614;13.500;2022-10-23T20:37:04;54327.72;;;-143.77;81.68
13836;BME280;6988;52.614;13.500;2022-10-23T20:41:58;54331.81;;;-143.77;81.38
13836;BME280;6988;52.614;13.500;2022-10-23T20:46:50;54329.75;;;-143.77;81.29
13836;BME280;6988;52.614;13.500;2022-10-23T20:51:42;54323.59;;;-143.77;80.96
13836;BME280;6988;52.614;13.500;2022-10-23T20:56:36;54325.66;;;-143.77;80.87
13836;BME280;6988;52.614;13.500;2022-10-23T21:01:31;54374.91;;;-143.77;80.97
13836;BME280;6988;52.614;13.500;2022-10-23T21:06:24;54307.19;;;-143.77;81.07
13836;BME280;6988;52.614;13.500;2022-10-23T21:11:17;54327.72;;;-143.77;81.54
13836;BME280;6988;52.614;13.500;2022-10-23T21:16:14;54368.75;;;-143.77;81.75
13836;BME280;6988;52.614;13.500;2022-10-23T21:21:07;54321.56;;;-143.77;81.81
13836;BME280;6988;52.614;13.500;2022-10-23T21:26:00;54340.03;;;-143.77;81.86
13836;BME280;6988;52.614;13.500;2022-10-23T21:30:52;54340.03;;;-143.77;81.63
13836;BME280;6988;52.614;13.500;2022-10-23T21:35:44;54366.69;;;-143.77;81.83
13836;BME280;6988;52.614;13.500;2022-10-23T21:40:37;54352.34;;;-143.77;81.94
13836;BME280;6988;52.614;13.500;2022-10-23T21:45:29;54331.81;;;-143.77;82.71
13836;BME280;6988;52.614;13.500;2022-10-23T22:04:52;54337.97;;;-143.77;84.07
13836;BME280;6988;52.614;13.500;2022-10-23T22:09:44;54368.75;;;-143.77;84.24
13836;BME280;6988;52.614;13.500;2022-10-23T22:14:37;54360.53;;;-143.77;83.60
13836;BME280;6988;52.614;13.500;2022-10-23T22:19:31;54327.72;;;-143.77;83.19
13836;BME280;6988;52.614;13.500;2022-10-23T22:24:24;54331.81;;;-143.77;82.73
13836;BME280;6988;52.614;13.500;2022-10-23T22:29:19;54356.44;;;-143.77;81.70
13836;BME280;6988;52.614;13.500;2022-10-23T22:34:16;54315.41;;;-143.77;81.83
13836;BME280;6988;52.614;13.500;2022-10-23T22:39:09;54342.06;;;-143.77;81.46
13836;BME280;6988;52.614;13.500;2022-10-23T22:44:04;54337.97;;;-143.77;81.56
13836;BME280;6988;52.614;13.500;2022-10-23T22:48:57;54337.97;;;-143.77;81.47
13836;BME280;6988;52.614;13.500;2022-10-23T22:53:49;54329.75;;;-143.77;81.90
13836;BME280;6988;52.614;13.500;2022-10-23T22:58:41;54296.94;;;-143.77;81.50
13836;BME280;6988;52.614;13.500;2022-10-23T23:03:36;54327.72;;;-143.77;81.10
13836;BME280;6988;52.614;13.500;2022-10-23T23:08:28;54290.78;;;-143.77;80.58
13836;BME280;6988;52.614;13.500;2022-10-23T23:13:20;54298.97;;;-143.77;80.76
13836;BME280;6988;52.614;13.500;2022-10-23T23:18:12;54307.19;;;-143.77;81.31
13836;BME280;6988;52.614;13.500;2022-10-23T23:23:05;54327.72;;;-143.77;82.32
13836;BME280;6988;52.614;13.500;2022-10-23T23:27:57;54305.13;;;-143.77;83.15
13836;BME280;6988;52.614;13.500;2022-10-23T23:32:50;54278.47;;;-143.77;84.33
13836;BME280;6988;52.614;13.500;2022-10-23T23:37:42;54315.41;;;-143.77;85.36
13836;BME280;6988;52.614;13.500;2022-10-23T23:42:36;54370.81;;;-143.77;86.10
13836;BME280;6988;52.614;13.500;2022-10-23T23:47:28;54315.41;;;-143.77;86.80
13836;BME280;6988;52.614;13.500;2022-10-23T23:52:19;54337.97;;;-143.77;87.73
13836;BME280;6988;52.614;13.500;2022-10-23T23:57:12;54321.56;;;-143.77;88.03
